Mound City, Kansas
Current Conditions -  °F | °C
As of 4:35 PM on Friday 28 Nov 2014 (Local Time) from KPTS Reporting Station
Clear Clear  
Wind Chill: 61°   Ceiling: Unl
Heat Index: 61°   Visibility: 10mi
Dew Point: 41°   Wind: 14mph
Humidity: 47%   Direction: 220°SW
Pressure: 29.84"   Gusts: 26mph
Location:  38.14°N, 94.81°W
Report Text: KPTS 282235Z AUTO 22012G23KT 10SM CLR 16/05 A2984 RMK AO2 T01610049
Loading
Personal Weather Stations






























Interactive Weather Map New forecast layout! Learn more

10-Day Weather Forecast

Advertisements
Track Severe Weather on mobile